Flight Track Log - Related Links

Times and Time Zones

All times are in EDT time to prevent confusion due to time zone crossing. See the SKW5516 flight status page for this flight to view local times or setup timezone preferences in your user account.

Time Position Orientation Groundspeed Altitude Reporting Facility
EDT Latitude Longitude Course Direction KTS MPH feet Rate Location/Type
Wed 11:27:06 AM 39.8667 -104.8000 270° West 216 249 7,700  Level Denver TRACON
Wed 11:28:06 AM 39.8953 -104.8683 299° West 226 260 9,700 1,721 Climbing Denver Center
Wed 11:29:08 AM 39.9150 -104.9633 285° West 274 315 11,200 1,403 Climbing Denver Center
Wed 11:30:10 AM 39.9247 -105.0789 276° West 317 365 12,600 1,597 Climbing Denver Center
Wed 11:31:12 AM 39.9358 -105.2153 276° West 352 405 14,500 1,887 Climbing Denver Center
Wed 11:32:00 AM 39.9167 -105.4740 270° West  Level FlightAware Approximate
Wed 11:32:14 AM 39.9481 -105.3444 277° West 360 414 16,500  Level Denver Center
Wed 11:33:16 AM 39.9594 -105.4853 276° West 364 419 18,400 1,839 Climbing Denver Center
Wed 11:34:18 AM 39.9711 -105.6136 277° West 358 412 20,300 1,694 Climbing Denver Center
Wed 11:35:20 AM 39.9736 -105.7528 271° West 361 415 21,900 1,452 Climbing Denver Center
Wed 11:36:22 AM 39.9711 -105.8803 269° West 357 411 23,300 1,392 Climbing Denver Center
Wed 11:37:25 AM 39.9800 -106.0164 275° West 377 434 24,800 1,248 Climbing Denver Center
Wed 11:38:27 AM 39.9872 -106.1556 274° West 385 443 25,900 1,113 Climbing Denver Center
Wed 11:39:29 AM 39.9972 -106.3286 274° West 400 460 27,100 1,065 Climbing Denver Center
Wed 11:40:31 AM 40.0172 -106.4736 280° West 417 480 28,100 968 Climbing Denver Center
Wed 11:41:33 AM 40.0694 -106.6028 298° West 420 483 29,100 1,016 Climbing Denver Center
Wed 11:42:35 AM 40.1336 -106.7531 299° West 424 488 30,200 1,016 Climbing Denver Center
Wed 11:43:37 AM 40.1878 -106.8817 299° West 421 484 31,200 1,016 Climbing Denver Center
Wed 11:44:39 AM 40.2508 -107.0328 299° West 424 488 32,300 1,016 Climbing Denver Center
Wed 11:45:41 AM 40.3064 -107.1628 299° West 428 493 33,300 1,016 Climbing Denver Center
Wed 11:46:43 AM 40.3686 -107.3111 299° West 420 483 34,400 882 Climbing Denver Center
Wed 11:47:57 AM 40.4219 -107.4383 299° West 417 480 35,300 971 Climbing Denver Center
Wed 11:48:59 AM 40.4903 -107.6061 298° West 411 473 36,600 1,113 Climbing Denver Center
Wed 11:50:01 AM 40.5428 -107.7289 299° West 405 466 37,600 677 Climbing Denver Center
Wed 11:51:03 AM 40.6003 -107.8725 298° West 400 460 38,000 192 Climbing Denver Center
Wed 11:52:06 AM 40.6519 -108.0000 298° West 411 473 38,000  Level Denver Center
Wed 11:53:08 AM 40.7139 -108.1500 299° West 419 482 38,000  Level Denver Center
Wed 11:54:10 AM 40.7700 -108.2897 298° West 418 481 38,000  Level Denver Center
Wed 11:55:12 AM 40.8222 -108.4211 298° West 421 484 38,000  Level Denver Center
Wed 11:56:14 AM 40.8819 -108.5714 298° West 415 478 38,000  Level Denver Center
Wed 11:57:28 AM 40.9344 -108.7014 298° West 418 481 38,000  Level Denver Center
Wed 11:58:30 AM 41.0042 -108.8775 298° West 421 484 38,000  Level Denver Center
Wed 11:58:45 AM 41.0128 -108.8997 297° West 420 483 38,000  Level Salt Lake Center
Wed 11:59:49 AM 41.0728 -109.0528 298° West 418 481 38,000  Level Salt Lake Center
Wed 12:00:51 PM 41.1325 -109.2075 297° West 418 481 38,000  Level Salt Lake Center
Wed 12:01:53 PM 41.1847 -109.3408 298° West 421 484 38,000  Level Salt Lake Center
Wed 12:02:55 PM 41.2356 -109.4733 297° West 418 481 38,000  Level Salt Lake Center
Wed 12:03:57 PM 41.2950 -109.6269 297° West 417 480 38,000  Level Salt Lake Center
Wed 12:04:59 PM 41.3456 -109.7583 297° West 416 479 38,000  Level Salt Lake Center
Wed 12:06:01 PM 41.4044 -109.9111 297° West 414 476 38,000  Level Salt Lake Center
Wed 12:07:03 PM 41.4544 -110.0414 297° West 413 475 38,000  Level Salt Lake Center
Wed 12:08:05 PM 41.5119 -110.1953 297° West 415 478 38,000  Level Salt Lake Center
Wed 12:09:07 PM 41.5619 -110.3261 297° West 414 476 38,000  Level Salt Lake Center
Wed 12:10:09 PM 41.6111 -110.4594 296° West 416 479 38,000  Level Salt Lake Center
Wed 12:11:11 PM 41.6706 -110.6144 297° West 419 482 38,000  Level Salt Lake Center
Wed 12:12:13 PM 41.7197 -110.7464 297° West 416 479 38,000  Level Salt Lake Center
Wed 12:13:15 PM 41.7769 -110.9011 296° West 414 476 38,000  Level Salt Lake Center
Wed 12:14:17 PM 41.8247 -111.0322 296° West 416 479 38,000  Level Salt Lake Center
Wed 12:15:19 PM 41.8756 -111.1692 297° West 414 476 38,000  Level Salt Lake Center
Wed 12:16:21 PM 41.9358 -111.3358 296° West 417 480 38,000  Level Salt Lake Center
Wed 12:17:23 PM 41.9858 -111.4744 296° West 416 479 38,000  Level Salt Lake Center
Wed 12:18:25 PM 42.0367 -111.6144 296° West 417 480 38,000  Level Salt Lake Center
Wed 12:19:27 PM 42.0869 -111.7544 296° West 419 482 38,000  Level Salt Lake Center
Wed 12:20:29 PM 42.1361 -111.8953 295° West 419 482 38,000  Level Salt Lake Center
Wed 12:21:31 PM 42.1958 -112.0628 296° West 417 480 38,000  Level Salt Lake Center
Wed 12:22:33 PM 42.2458 -112.2036 296° West 417 480 38,000  Level Salt Lake Center
Wed 12:23:35 PM 42.2958 -112.3458 295° West 421 484 38,000  Level Salt Lake Center
Wed 12:24:37 PM 42.3461 -112.4867 296° West 420 483 38,000  Level Salt Lake Center
Wed 12:25:39 PM 42.3953 -112.6292 295° West 421 484 38,000  Level Salt Lake Center
Wed 12:26:41 PM 42.4450 -112.7722 295° West 421 484 38,000  Level Salt Lake Center
Wed 12:27:43 PM 42.5039 -112.9450 295° West 424 488 38,000  Level Salt Lake Center
Wed 12:28:45 PM 42.5536 -113.0900 295° West 425 489 38,000  Level Salt Lake Center
Wed 12:29:47 PM 42.6017 -113.2322 295° West 419 482 38,000  Level Salt Lake Center
Wed 12:30:49 PM 42.6514 -113.3742 296° West 417 480 38,000  Level Salt Lake Center
Wed 12:31:51 PM 42.7042 -113.5336 294° West 424 488 38,000  Level Salt Lake Center
Wed 12:32:52 PM 42.7514 -113.6733 295° West 425 489 38,000  Level Salt Lake Center
Wed 12:33:54 PM 42.8053 -113.8358 294° West 423 487 38,000  Level Salt Lake Center
Wed 12:34:56 PM 42.8536 -113.9908 293° West 428 493 38,000  Level Salt Lake Center
Wed 12:35:58 PM 42.9017 -114.1381 294° West 426 490 38,000 -1,161 Level Salt Lake Center
Wed 12:37:00 PM 42.9592 -114.3028 296° West 435 501 35,600 -2,419 Descending Salt Lake Center
Wed 12:38:02 PM 43.0044 -114.4425 294° West 419 482 33,000 -2,468 Descending Salt Lake Center
Wed 12:39:04 PM 43.0475 -114.5767 294° West 404 465 30,500 -2,516 Descending Salt Lake Center
Wed 12:40:06 PM 43.0967 -114.7328 293° West 398 458 27,800 -2,468 Descending Salt Lake Center
Wed 12:41:08 PM 43.1378 -114.8614 294° West 387 445 25,400 -2,516 Descending Salt Lake Center
Wed 12:42:10 PM 43.1842 -115.0069 294° West 376 433 22,600 -2,613 Descending Salt Lake Center
Wed 12:43:12 PM 43.2253 -115.1375 293° West 368 423 20,000 -2,516 Descending Salt Lake Center
Wed 12:44:14 PM 43.2664 -115.2658 294° West 354 407 17,400 -2,516 Descending Salt Lake Center
Wed 12:45:16 PM 43.3053 -115.3883 294° West 341 392 14,800 -2,129 Descending Salt Lake Center
Wed 12:46:18 PM 43.3428 -115.5089 293° West 324 373 13,000 -871 Descending Salt Lake Center
Wed 12:47:20 PM 43.3781 -115.6225 293° West 317 365 13,000 -677 Level Salt Lake Center
Wed 12:48:22 PM 43.4122 -115.7333 293° West 325 374 11,600 -1,258 Descending Salt Lake Center
Wed 12:49:24 PM 43.4464 -115.8444 293° West 303 349 10,400 -1,024 Descending Salt Lake Center
Wed 12:50:25 PM 43.4736 -115.9433 291° West 270 311 9,500 -1,512 Descending Salt Lake Center
Wed 12:51:27 PM 43.4997 -116.0258 294° West 229 264 7,300 -1,984 Descending Salt Lake Center
Wed 12:52:29 PM 43.5233 -116.1042 293° West 214 246 5,400 -1,694 Descending Salt Lake Center
Wed 12:53:31 PM 43.5419 -116.1578 296° West 170 196 3,800 -1,548 Descending Salt Lake Center
Wed 12:55:00 PM 43.5500 -116.2167 289° West  Level FlightAware Approximate
Wed 01:02:00 PM 43.5644 -116.2229 289° West  Level Estimated
Wed 01:03:00 PM 43.5644 -116.2229 289° West  Level Estimated
Wed 01:04:00 PM 43.5644 -116.2229 289° West  Level Estimated

Login

Don't have an account? Register now (free) for customized features, flight alerts, and more!